Peter Phillips

Scout - Aston Villa
20 Feb 2028
Sunday
Process

Personality

Adaptability (15) Ambition (20) Controversy (1) Loyalty (1) Pressure (20) Professionalism (11) Sportsmanship (3) Temperament (14)

Profile

Coaching Style Democratic
License Continental Pro
Determination 15
Man Management 9
Motivating 13
Discipline 15
Job Satisfaction
100%
Fatigue
0%
Role Scout
Wage 89.0K p/w
Contract 14.03.2028

Performance

Behaviour Good
Training Effectiveness
48%
Player Development
45%
Injury Prevention
65%
Tactical Implementation
55%

Recent Events

Contract negotiation started now
Attended a recruitment meeting now
Attended a recruitment meeting now
Contract negotiation started now
Contract negotiation started now
Contract negotiation started now
Contract negotiation started 7d ago
Contract negotiation started 7d ago

Currently Monitoring

105
Player Club Status Ability Confidence Watched Last Observed Latest Vote
Jay Robinson Southampton Lost 129 / 134 83% 1 10.01.2028 Approve
Jofre Torrents Ajax Active 132 / 135 40% 1 31.12.2027 -
Archie Gray Derby County Active 147 / 154 40% 1 31.12.2027 -
Richard Koné Queens Park Rangers Active 125 / 128 40% 3 29.05.2027 -
Pablo Felipe West Ham United Active 132 / 140 40% 3 29.05.2027 -
Yoan Bonny Inter Active 146 / 152 40% 1 29.05.2027 -
Sascha Britschgi Padova Active 121 / 123 40% 6 28.05.2027 -
Caleb Yirenkyi Coventry City Active 138 / 141 40% 5 28.05.2027 -
Leonardo Mendicino Bari Active 116 / 123 40% 2 28.05.2027 -
Jesús Rodríguez Como Active 145 / 149 40% 2 28.05.2027 -
Nazareno Kihm Ferro Carril Oeste Active 108 / 114 40% 1 28.05.2027 -
Matheus Gonçalves Al-Ahli Active 132 / 123 40% 4 27.05.2027 -
Stefanos Tzimas Brighton Active 132 / 139 40% 6 27.05.2027 -
Cristian Shpendi Cesena Active 135 / 131 40% 4 27.05.2027 -
Rayan Cherki Manchester City Active 166 / 164 40% 2 24.05.2027 -
Jayden Addai Como Active 135 / 136 40% 2 23.05.2027 -
Christos Mouzakitis Hull City Active 133 / 142 40% 5 23.05.2027 -
Lewis Miley Chelsea Active 147 / 152 40% 2 23.05.2027 -
Josh King Chelsea Active 140 / 148 40% 5 22.05.2027 -
Cyriaque Irié VfL Wolfsburg Active 123 / 124 40% 2 22.05.2027 -
Christ Inao Oulaï Fiorentina Active 133 / 135 40% 2 19.05.2027 -
Dylan Lawlor Cardiff City Active 118 / 119 40% 4 19.05.2027 -
Tobias Slotsager Casertana Active 113 / 118 40% 1 19.05.2027 -
Jorrel Hato Chelsea Active 148 / 152 40% 4 17.05.2027 -
Ben Gannon Doak Bournemouth Active 137 / 151 40% 4 16.05.2027 -
Jan Bürger Gillingham Active 111 / 121 40% 5 16.05.2027 -
Othmane Maamma Watford Active 124 / 131 40% 2 15.05.2027 -
Leo Castledine Middlesbrough Active 129 / 131 40% 3 12.05.2027 -
Ethan Williams Peterborough United Active 117 / 123 40% 2 12.05.2027 -
Oscar Schwartau Norwich City Active 124 / 125 40% 2 12.05.2027 -
Daniel Kelly Oxford United Active 114 / 123 40% 4 11.05.2027 -
Stiven Shpendi Empoli Active 121 / 120 40% 3 06.05.2027 -
Morgan Rogers Chelsea Active 158 / 165 40% 5 05.05.2027 -
Dom Ballard Leyton Orient Active 119 / 122 40% 1 05.05.2027 -
Johan Manzambi Newcastle United Active 144 / 149 40% 3 04.05.2027 -
Sam Bell Bristol City Lost 119 / 123 40% 2 30.04.2027 -
Matvey Kislyak CSKA Moscow Active 139 / 143 40% 2 27.04.2027 -
Gonzalo Fulham Active 145 / 143 40% 2 25.04.2027 -
David Ozoh Derby County Active 120 / 125 40% 1 16.04.2027 -
Assane Diao Lazio Active 143 / 151 40% 3 15.04.2027 -
Tiago Freitas Benfica Active 107 / 113 40% 1 15.04.2027 -
Tommy Conway Middlesbrough Active 128 / 126 40% 1 14.04.2027 -
Mfundo Vilakazi Kaizer Chiefs Active 116 / 113 40% 2 12.04.2027 -
Tom Cannon Sheffield United Active 124 / 129 40% 4 11.04.2027 -
Matías Gómez Granada Active 112 / 120 40% 2 09.04.2027 -
Franz-Ethan Meichtry Genoa Active 125 / 128 40% 1 09.04.2027 -
Kenan Yıldız Juventus Active 165 / 165 40% 7 08.04.2027 -
Manfred Ugalde Spartak Moscow Active 130 / 135 40% 1 07.04.2027 -
Tyreece Campbell Charlton Athletic Active 122 / 124 40% 1 04.04.2027 -
Dmitry Pestryakov Dinamo Moscow Active 109 / 118 40% 3 02.04.2027 -
Jack Hinshelwood Brighton Active 146 / 145 40% 1 01.04.2027 -
Georginio Rutter Brighton Active 143 / 152 40% 2 31.03.2027 -
Cemran Dansin Orlando Pirates Active 108 / 108 40% 1 24.03.2027 -
Dean Huijsen Villarreal Active 146 / 146 40% 1 24.03.2027 -
Joe Gelhardt Hull City Active 129 / 127 40% 1 21.03.2027 -
Felipe Augusto Zenit Active 136 / 136 40% 1 19.03.2027 -
Ruben van Bommel Ferencvaros Active 132 / 134 40% 1 19.03.2027 -
Juan Giménez Celta Active 117 / 129 40% 1 17.03.2027 -
Shea Lacey Wolverhampton Active 122 / 130 40% 1 15.03.2027 -
Edvin Austbø West Ham United Active 128 / 135 40% 1 07.03.2027 -
Leandrinho Sharjah Active 109 / 121 40% 1 02.03.2027 -
Declan Rice Arsenal Active 181 / 190 40% 4 30.12.2026 -
Dominik Szoboszlai Liverpool Active 166 / 159 40% 3 30.12.2026 -
Luis Suárez Chelsea Active 154 / 152 40% 4 29.12.2026 -
Jeremie Frimpong Liverpool Active 162 / 164 40% 2 28.12.2026 -
Nico O'Reilly Manchester City Active 158 / 154 40% 2 28.12.2026 -
Pierre Kalulu Juventus Active 160 / 149 40% 1 28.12.2026 -
Romelu Witsel Liverpool Active 164 / 160 40% 3 26.12.2026 -
Gonçalo Ramos AC Milan Active 161 / 159 40% 3 26.12.2026 -
Dušan Vlahović Juventus Active 160 / 163 40% 1 26.12.2026 -
Mateo Retegui Tottenham Active 158 / 152 40% 3 22.12.2026 -
Miloš Kerkez Liverpool Active 149 / 159 40% 2 20.12.2026 -
Malick Thiaw West Ham United Active 151 / 151 40% 4 20.12.2026 -
Hector Ramirez Newcastle United Active 153 / 155 40% 2 20.12.2026 -
Jan Paul van Hecke Tottenham Active 162 / 158 40% 2 19.12.2026 -
Curtis Jones Inter Active 154 / 158 40% 1 19.12.2026 -
Tino Livramento Newcastle United Active 153 / 152 40% 4 18.12.2026 -
Moisés Caicedo Chelsea Active 174 / 171 40% 2 18.12.2026 -
Marcus Rashford Manchester United Active 156 / 161 40% 1 18.12.2026 -
Victor Osimhen Manchester United Active 160 / 159 40% 2 16.12.2026 Needs More Info
João Pedro Chelsea Active 150 / 148 40% 1 13.12.2026 -
Iliman N'Diaye Everton Rejected 156 / 158 40% 2 11.12.2026 Needs More Info
Antoine Semenyo Manchester City Active 157 / 152 40% 3 11.12.2026 -
Levi Colwill Chelsea Active 157 / 160 40% 4 09.12.2026 -
Jurriën Timber Arsenal Active 160 / 156 40% 4 09.12.2026 -
Murillo Nottingham Forest Active 156 / 155 40% 1 04.12.2026 -
Matthijs de Ligt Manchester United Active 164 / 155 40% 1 04.12.2026 -
Jarrod Bowen West Ham United Active 153 / 148 40% 1 01.12.2026 -
Sven Botman Newcastle United Active 155 / 156 40% 4 30.11.2026 -
Ryan Gravenberch Liverpool Active 157 / 162 40% 3 30.11.2026 -
Alexis Mac Allister Liverpool Active 158 / 160 40% 1 30.11.2026 -
William Saliba Arsenal Active 180 / 176 40% 3 18.11.2026 -
Bradley Barcola Liverpool Active 157 / 160 40% 1 12.11.2026 -
Micky van de Ven Tottenham Active 162 / 160 40% 1 06.11.2026 -
Gabriel Martinelli Brighton Active 157 / 162 40% 1 06.11.2026 -
Wesley Fofana Chelsea Active 162 / 155 40% 1 03.11.2026 -
Trevoh Chalobah Como Active 151 / 155 40% 1 03.11.2026 -
Viktor Gyökeres Arsenal Active 151 / 152 40% 2 01.11.2026 -
Nico González Newcastle United Active 165 / 160 40% 2 28.10.2026 -
Mohammed Kudus Tottenham Active 156 / 161 40% 2 22.10.2026 -
Federico Chiesa Liverpool Active 154 / 152 40% 2 22.10.2026 -
Bryan Mbeumo Manchester United Active 159 / 154 40% 1 17.10.2026 -
Matheus Cunha Manchester United Active 156 / 151 40% 1 09.10.2026 -
Cody Gakpo Liverpool Active 156 / 158 40% 1 09.10.2026 -
Martín Zubimendi Arsenal Active 167 / 164 40% 1 06.10.2026 -